createdAt,value
2018-03-23T00:01:48.234Z,3.30
2018-03-23T00:04:14.567Z,2.63
2018-03-23T00:06:40.778Z,3.10
2018-03-23T00:09:07.071Z,2.93
2018-03-23T00:11:34.051Z,2.63
2018-03-23T00:14:00.335Z,3.17
2018-03-23T00:16:27.382Z,2.83
2018-03-23T00:18:54.351Z,2.60
2018-03-23T00:21:21.409Z,2.30
2018-03-23T00:23:48.447Z,3.27
2018-03-23T00:26:14.728Z,2.83
2018-03-23T00:28:41.036Z,2.83
2018-03-23T00:31:07.431Z,2.33
2018-03-23T00:33:34.531Z,3.57
2018-03-23T00:36:00.786Z,2.93
2018-03-23T00:38:27.800Z,3.13
2018-03-23T00:40:54.780Z,3.17
2018-03-23T00:43:21.024Z,3.67
2018-03-23T00:45:47.251Z,3.07
2018-03-23T00:48:14.332Z,2.87
2018-03-23T00:50:40.553Z,3.53
2018-03-23T00:53:07.299Z,2.90
2018-03-23T00:55:33.527Z,3.23
2018-03-23T00:57:59.846Z,2.80
2018-03-23T01:00:26.105Z,3.80
2018-03-23T01:02:52.511Z,4.23
2018-03-23T01:05:18.820Z,3.00
2018-03-23T01:07:45.316Z,3.20
2018-03-23T01:10:11.545Z,4.27
2018-03-23T01:12:37.763Z,3.23
2018-03-23T01:15:04.950Z,3.97
2018-03-23T01:17:31.206Z,3.93
2018-03-23T01:19:57.470Z,3.63
2018-03-23T01:22:24.474Z,5.27
2018-03-23T01:24:50.694Z,4.20
2018-03-23T01:27:17.040Z,4.20
2018-03-23T01:29:43.322Z,4.77
2018-03-23T01:32:10.074Z,4.20
2018-03-23T01:34:36.368Z,4.27
2018-03-23T01:37:02.685Z,5.70
2018-03-23T01:39:28.919Z,5.50
2018-03-23T01:41:55.578Z,5.37
2018-03-23T01:44:22.691Z,5.40
2018-03-23T01:46:48.918Z,6.57
2018-03-23T01:49:15.295Z,5.90
2018-03-23T01:51:41.604Z,5.77
2018-03-23T01:54:08.596Z,6.10
2018-03-23T01:56:35.781Z,6.80
2018-03-23T01:59:02.071Z,7.67
2018-03-23T02:01:28.317Z,6.20
2018-03-23T02:03:54.650Z,6.80
2018-03-23T02:06:20.874Z,6.87
2018-03-23T02:08:47.122Z,9.10
2018-03-23T02:11:13.331Z,6.93
2018-03-23T02:13:39.667Z,8.40
2018-03-23T02:16:05.965Z,7.70
2018-03-23T02:18:32.173Z,7.63
2018-03-23T02:20:59.144Z,8.50
2018-03-23T02:23:25.418Z,9.40
2018-03-23T02:25:51.670Z,9.23
2018-03-23T02:28:17.926Z,8.57
2018-03-23T02:30:44.178Z,9.10
2018-03-23T02:33:10.512Z,9.20
2018-03-23T02:35:36.740Z,7.77
2018-03-23T02:38:03.440Z,8.53
2018-03-23T02:40:30.408Z,9.20
2018-03-23T02:42:57.416Z,8.57
2018-03-23T02:45:23.804Z,8.83
2018-03-23T02:47:50.100Z,9.50
2018-03-23T02:50:16.456Z,9.73
2018-03-23T02:52:42.887Z,11.03
2018-03-23T02:55:09.598Z,9.80
2018-03-23T02:57:35.828Z,9.70
2018-03-23T03:00:02.075Z,9.70
2018-03-23T03:02:28.333Z,10.30
2018-03-23T03:04:54.574Z,9.30
2018-03-23T03:07:21.673Z,9.40
2018-03-23T03:09:47.925Z,10.30
2018-03-23T03:12:14.297Z,9.20
2018-03-23T03:14:41.278Z,11.23
2018-03-23T03:17:07.493Z,10.57
2018-03-23T03:19:33.734Z,9.50
2018-03-23T03:21:59.970Z,8.50
2018-03-23T03:24:26.211Z,10.97
2018-03-23T03:26:52.475Z,11.00
2018-03-23T03:29:18.730Z,11.07
2018-03-23T03:31:44.942Z,9.47
2018-03-23T03:34:11.312Z,10.17
2018-03-23T03:36:37.577Z,10.00
2018-03-23T03:39:04.607Z,10.40
2018-03-23T03:41:30.835Z,9.97
2018-03-23T03:43:57.077Z,13.17
2018-03-23T03:46:23.331Z,11.73
2018-03-23T03:48:49.552Z,12.10
2018-03-23T03:51:15.766Z,11.30
2018-03-23T03:53:42.018Z,10.13
2018-03-23T03:56:08.277Z,12.43
2018-03-23T03:58:35.272Z,11.53
2018-03-23T04:01:01.495Z,11.50
2018-03-23T04:03:27.709Z,11.17
2018-03-23T04:05:54.250Z,11.53
2018-03-23T04:08:20.477Z,13.00
2018-03-23T04:10:46.685Z,11.00
2018-03-23T04:13:13.733Z,11.70
2018-03-23T04:15:40.687Z,11.57
2018-03-23T04:18:07.651Z,10.90
2018-03-23T04:20:33.994Z,12.23
2018-03-23T04:23:00.365Z,12.47
2018-03-23T04:25:26.569Z,12.07
2018-03-23T04:27:52.862Z,11.13
2018-03-23T04:30:19.394Z,14.00
2018-03-23T04:32:45.713Z,12.80
2018-03-23T04:35:12.714Z,10.97
2018-03-23T04:37:38.929Z,12.23
2018-03-23T04:40:05.155Z,13.00
2018-03-23T04:42:31.379Z,10.90
2018-03-23T04:44:57.630Z,12.67
2018-03-23T04:47:24.618Z,12.70
2018-03-23T04:49:50.979Z,11.40
2018-03-23T04:52:17.475Z,11.30
2018-03-23T04:54:43.719Z,12.10
2018-03-23T04:57:10.057Z,12.17
2018-03-23T04:59:36.334Z,11.43
2018-03-23T05:02:02.647Z,11.00
2018-03-23T05:04:28.910Z,11.40
2018-03-23T05:06:55.140Z,10.50
2018-03-23T05:09:21.379Z,10.37
2018-03-23T05:11:48.343Z,11.47
2018-03-23T05:14:15.578Z,10.73
2018-03-23T05:16:41.905Z,9.17
2018-03-23T05:19:08.163Z,11.97
2018-03-23T05:21:35.158Z,12.13
2018-03-23T05:24:02.184Z,10.57
2018-03-23T05:26:28.439Z,10.67
2018-03-23T05:28:54.687Z,14.70
2018-03-23T05:31:21.031Z,11.30
2018-03-23T05:33:48.012Z,12.03
2018-03-23T05:36:14.286Z,13.50
2018-03-23T05:38:40.695Z,11.53
2018-03-23T05:41:06.946Z,12.97
2018-03-23T05:43:33.310Z,12.53
2018-03-23T05:46:00.698Z,19.70
2018-03-23T05:48:26.976Z,17.53
2018-03-23T05:50:53.336Z,14.10
2018-03-23T05:53:19.658Z,14.30
2018-03-23T05:55:46.694Z,13.53
2018-03-23T05:58:13.048Z,14.00
2018-03-23T06:00:40.077Z,14.20
2018-03-23T06:03:06.410Z,12.00
2018-03-23T06:05:32.760Z,11.67
2018-03-23T06:07:59.248Z,11.33
2018-03-23T06:10:25.852Z,11.37
2018-03-23T06:12:52.101Z,11.53
2018-03-23T06:15:18.335Z,13.10
2018-03-23T06:17:44.554Z,11.43
2018-03-23T06:20:10.769Z,11.43
2018-03-23T06:22:37.066Z,12.40
2018-03-23T06:25:03.311Z,10.90
2018-03-23T06:27:30.270Z,11.67
2018-03-23T06:29:56.518Z,11.43
2018-03-23T06:32:22.786Z,13.33
2018-03-23T06:34:49.085Z,11.10
2018-03-23T06:37:15.367Z,11.77
2018-03-23T06:39:42.338Z,10.73
2018-03-23T06:42:08.572Z,12.83
2018-03-23T06:44:35.715Z,12.30
2018-03-23T06:47:02.681Z,10.63
2018-03-23T06:49:29.843Z,10.50
2018-03-23T06:51:56.169Z,13.00
2018-03-23T06:54:22.406Z,14.00
2018-03-23T06:56:48.632Z,13.53
2018-03-23T06:59:14.890Z,13.37
2018-03-23T07:01:41.120Z,12.77
2018-03-23T07:04:07.372Z,12.53
2018-03-23T07:06:33.682Z,13.23
2018-03-23T07:08:59.897Z,13.23
2018-03-23T07:11:26.182Z,13.60
2018-03-23T07:13:53.489Z,13.57
2018-03-23T07:16:20.192Z,13.90
2018-03-23T07:18:46.431Z,12.63
2018-03-23T07:21:12.677Z,14.77
2018-03-23T07:23:38.942Z,11.93
2018-03-23T07:26:05.172Z,15.13
2018-03-23T07:28:31.407Z,14.47
2018-03-23T07:30:57.657Z,14.17
2018-03-23T07:33:24.702Z,13.10
2018-03-23T07:35:52.135Z,14.03
2018-03-23T07:38:18.492Z,12.47
2018-03-23T07:40:45.600Z,13.17
2018-03-23T07:43:11.824Z,15.13
2018-03-23T07:45:38.135Z,12.73
2018-03-23T07:48:04.355Z,13.20
2018-03-23T07:50:30.718Z,13.70
2018-03-23T07:52:56.997Z,13.20
2018-03-23T07:55:23.953Z,14.50
2018-03-23T07:57:50.166Z,15.33
2018-03-23T08:00:17.140Z,14.40
2018-03-23T08:02:43.383Z,13.03
2018-03-23T08:05:09.919Z,12.33
2018-03-23T08:07:36.171Z,13.20
2018-03-23T08:10:02.478Z,16.43
2018-03-23T08:12:28.695Z,13.87
2018-03-23T08:14:55.150Z,14.87
2018-03-23T08:17:22.242Z,12.27
2018-03-23T08:19:48.482Z,15.17
2018-03-23T08:22:15.562Z,16.40
2018-03-23T08:24:41.846Z,15.10
2018-03-23T08:27:08.091Z,14.50
2018-03-23T08:29:35.041Z,15.57
2018-03-23T08:32:02.001Z,16.60
2018-03-23T08:34:28.269Z,15.70
2018-03-23T08:36:54.647Z,15.10
2018-03-23T08:39:21.978Z,17.70
2018-03-23T08:41:48.612Z,18.50
2018-03-23T08:44:14.785Z,14.57
2018-03-23T08:46:41.062Z,16.60
2018-03-23T08:49:07.299Z,18.17
2018-03-23T08:51:33.509Z,17.07
2018-03-23T08:54:00.449Z,18.50
2018-03-23T08:56:26.745Z,15.57
2018-03-23T08:58:52.967Z,16.47
2018-03-23T09:01:20.073Z,16.13
2018-03-23T09:03:46.284Z,18.13
2018-03-23T09:06:12.950Z,15.43
2018-03-23T09:08:39.276Z,14.20
2018-03-23T09:11:05.590Z,15.37
2018-03-23T09:13:31.831Z,13.87
2018-03-23T09:15:58.102Z,14.20
2018-03-23T09:18:25.050Z,14.80
2018-03-23T09:20:52.202Z,14.50
2018-03-23T09:23:19.171Z,14.10
2018-03-23T09:25:45.389Z,15.23
2018-03-23T09:28:14.561Z,14.27
2018-03-23T09:30:41.549Z,13.07
2018-03-23T09:33:07.888Z,14.47
2018-03-23T09:35:34.184Z,16.10
2018-03-23T09:38:01.193Z,13.80
2018-03-23T09:40:27.422Z,12.63
2018-03-23T09:42:54.642Z,14.00
2018-03-23T09:45:20.997Z,15.00
2018-03-23T09:47:47.203Z,16.00
2018-03-23T09:50:13.455Z,13.90
2018-03-23T09:52:39.667Z,14.47
2018-03-23T09:55:06.050Z,12.57
2018-03-23T09:57:32.997Z,14.43
2018-03-23T10:00:00.030Z,13.80
2018-03-23T10:02:26.257Z,12.63
2018-03-23T10:04:52.498Z,14.17
2018-03-23T10:07:19.524Z,13.97
2018-03-23T10:09:45.771Z,12.63
2018-03-23T10:12:13.050Z,12.13
2018-03-23T10:14:39.328Z,13.80
2018-03-23T10:17:05.684Z,15.00
2018-03-23T10:19:31.899Z,11.70
2018-03-23T10:21:58.182Z,13.80
2018-03-23T10:24:24.479Z,13.30
2018-03-23T10:26:51.644Z,12.40
2018-03-23T10:29:18.593Z,12.20
2018-03-23T10:31:55.676Z,12.37
2018-03-23T10:34:22.795Z,14.13
2018-03-23T10:36:49.201Z,13.17
2018-03-23T10:39:15.548Z,14.07
2018-03-23T10:41:41.788Z,13.17
2018-03-23T10:44:08.130Z,13.70
2018-03-23T10:46:34.353Z,14.00
2018-03-23T10:49:00.582Z,14.17
2018-03-23T10:51:26.845Z,12.77
2018-03-23T10:53:53.053Z,13.53
2018-03-23T10:56:20.394Z,12.87
2018-03-23T10:58:46.703Z,13.67
2018-03-23T11:01:19.135Z,13.00
2018-03-23T11:03:45.369Z,14.00
2018-03-23T11:06:11.615Z,13.07
2018-03-23T11:08:37.844Z,13.60
2018-03-23T11:11:04.040Z,12.67
2018-03-23T11:13:31.111Z,13.33
2018-03-23T11:15:57.474Z,12.83
2018-03-23T11:18:23.772Z,12.63
2018-03-23T11:20:50.076Z,12.60
2018-03-23T11:23:17.202Z,12.80
2018-03-23T11:25:43.439Z,12.67
2018-03-23T11:28:09.774Z,12.17
2018-03-23T11:30:36.038Z,12.80
2018-03-23T11:33:02.394Z,13.47
2018-03-23T11:35:28.666Z,12.40
2018-03-23T11:37:54.913Z,12.40
2018-03-23T11:40:21.874Z,13.10
2018-03-23T11:42:48.279Z,13.47
2018-03-23T11:45:15.111Z,14.40
2018-03-23T11:47:41.407Z,14.00
2018-03-23T11:50:07.653Z,14.27
2018-03-23T11:52:33.902Z,10.90
2018-03-23T11:55:00.181Z,14.97
2018-03-23T11:57:26.393Z,13.87
2018-03-23T11:59:52.648Z,13.53
2018-03-23T12:02:18.871Z,14.33
2018-03-23T12:04:45.100Z,15.47
2018-03-23T12:07:12.483Z,12.57
2018-03-23T12:09:38.892Z,15.20
2018-03-23T12:12:05.156Z,15.67
2018-03-23T12:14:31.474Z,17.67
2018-03-23T12:16:57.738Z,15.00
2018-03-23T12:19:24.714Z,15.60
2018-03-23T12:21:51.046Z,16.00
2018-03-23T12:24:17.347Z,17.17
2018-03-23T12:26:44.643Z,19.03
2018-03-23T12:29:10.865Z,18.40
2018-03-23T12:31:37.170Z,16.63
2018-03-23T12:34:03.481Z,17.77
2018-03-23T12:36:30.587Z,19.13
2018-03-23T12:38:56.905Z,17.97
2018-03-23T12:41:23.166Z,19.77
2018-03-23T12:43:49.576Z,19.57
2018-03-23T12:46:15.831Z,20.07
2018-03-23T12:48:42.278Z,20.80
2018-03-23T12:51:08.490Z,17.17
2018-03-23T12:53:34.762Z,21.17
2018-03-23T12:56:01.193Z,19.67
2018-03-23T12:58:28.200Z,22.33
2018-03-23T13:00:54.442Z,19.93
2018-03-23T13:03:20.661Z,18.77
2018-03-23T13:05:46.886Z,18.30
2018-03-23T13:08:13.148Z,20.10
2018-03-23T13:10:40.212Z,20.07
2018-03-23T13:13:06.431Z,20.47
2018-03-23T13:15:33.475Z,19.60
2018-03-23T13:18:00.488Z,22.20
2018-03-23T13:20:26.756Z,21.87
2018-03-23T13:22:53.887Z,20.00
2018-03-23T13:25:20.161Z,20.90
2018-03-23T13:27:46.372Z,22.47
2018-03-23T13:30:13.355Z,21.50
2018-03-23T13:32:39.745Z,24.67
2018-03-23T13:35:06.013Z,22.20
2018-03-23T13:37:32.448Z,24.13
2018-03-23T13:39:58.692Z,21.90
2018-03-23T13:42:24.938Z,22.20
2018-03-23T13:44:51.166Z,21.50
2018-03-23T13:47:17.394Z,22.57
2018-03-23T13:49:43.615Z,21.70
2018-03-23T13:52:10.228Z,21.03
2018-03-23T13:54:36.510Z,23.70
2018-03-23T13:57:02.791Z,21.50
2018-03-23T14:02:26.693Z,23.07
2018-03-23T14:04:53.009Z,23.17
2018-03-23T14:07:19.247Z,27.10
2018-03-23T14:09:45.522Z,23.70
2018-03-23T14:12:11.797Z,25.00
2018-03-23T14:14:38.101Z,26.73
2018-03-23T14:17:05.076Z,24.87
2018-03-23T14:19:31.453Z,22.57
2018-03-23T14:21:57.679Z,24.00
2018-03-23T14:24:23.989Z,23.87
2018-03-23T14:26:50.214Z,23.13
2018-03-23T14:29:16.444Z,25.30
2018-03-23T14:31:42.851Z,27.00
2018-03-23T14:34:09.122Z,24.33
2018-03-23T14:36:35.354Z,24.50
2018-03-23T14:39:01.654Z,26.53
2018-03-23T14:41:27.893Z,26.77
2018-03-23T14:43:54.211Z,27.67
2018-03-23T14:46:20.417Z,25.40
2018-03-23T14:48:47.427Z,25.47
2018-03-23T14:51:13.798Z,27.93
2018-03-23T14:53:39.996Z,27.33
2018-03-23T14:56:06.638Z,30.73
2018-03-23T14:58:39.041Z,27.47
2018-03-23T15:01:05.255Z,30.40
2018-03-23T15:03:32.238Z,27.50
2018-03-23T15:05:58.548Z,28.10
2018-03-23T15:08:25.635Z,27.03
2018-03-23T15:10:51.928Z,28.60
2018-03-23T15:13:18.199Z,27.90
2018-03-23T15:15:44.531Z,27.13
2018-03-23T15:18:10.766Z,29.67
2018-03-23T15:20:37.062Z,29.40
2018-03-23T15:23:03.666Z,28.57
2018-03-23T15:25:30.678Z,28.93
2018-03-23T15:27:56.933Z,29.63
2018-03-23T15:30:23.163Z,29.60
2018-03-23T15:32:49.454Z,31.37
2018-03-23T15:35:15.716Z,30.70
2018-03-23T15:37:41.919Z,31.97
2018-03-23T15:40:08.242Z,35.00
2018-03-23T15:42:34.581Z,30.90
2018-03-23T15:45:00.882Z,30.23
2018-03-23T15:47:27.110Z,30.30
2018-03-23T15:49:53.415Z,29.77
2018-03-23T15:52:20.365Z,30.40
2018-03-23T15:54:47.337Z,35.40
2018-03-23T15:57:13.563Z,30.27
2018-03-23T15:59:39.775Z,31.70
2018-03-23T16:02:06.872Z,30.70
2018-03-23T16:04:33.820Z,31.43
2018-03-23T16:07:00.054Z,30.63
2018-03-23T16:09:26.274Z,31.27
2018-03-23T16:11:52.538Z,32.97
2018-03-23T16:14:18.746Z,34.60
2018-03-23T16:16:45.015Z,32.13
2018-03-23T16:19:12.003Z,31.07
2018-03-23T16:21:38.229Z,34.27
2018-03-23T16:24:04.573Z,32.53
2018-03-23T16:26:30.863Z,30.57
2018-03-23T16:28:57.319Z,32.20
2018-03-23T16:31:23.615Z,33.27
2018-03-23T16:33:50.802Z,32.53
2018-03-23T16:36:17.023Z,29.90
2018-03-23T16:38:43.245Z,32.23
2018-03-23T16:41:09.769Z,32.30
2018-03-23T16:43:36.948Z,32.70
2018-03-23T16:46:03.233Z,32.17
2018-03-23T16:48:30.199Z,30.23
2018-03-23T16:50:57.386Z,30.50
2018-03-23T16:53:23.611Z,30.20
2018-03-23T16:55:49.854Z,31.23
2018-03-23T16:58:16.082Z,33.97
2018-03-23T17:00:42.782Z,29.60
2018-03-23T17:03:09.036Z,25.90
2018-03-23T17:05:35.474Z,27.27
2018-03-23T17:08:01.703Z,28.27
2018-03-23T17:10:27.981Z,28.13
2018-03-23T17:12:54.982Z,25.77
2018-03-23T17:15:21.248Z,27.80
2018-03-23T17:17:48.249Z,24.50
2018-03-23T17:20:14.520Z,27.30
2018-03-23T17:22:40.719Z,28.47
2018-03-23T17:25:06.986Z,24.20
2018-03-23T17:27:33.264Z,27.37
2018-03-23T17:29:59.742Z,25.20
2018-03-23T17:32:26.013Z,26.60
2018-03-23T17:34:52.291Z,26.40
2018-03-23T17:37:18.516Z,25.37
2018-03-23T17:39:44.790Z,26.70
2018-03-23T17:42:11.271Z,26.83
2018-03-23T17:44:37.529Z,27.10
2018-03-23T17:47:03.769Z,25.83
2018-03-23T17:49:31.110Z,25.80
2018-03-23T17:51:57.468Z,26.10
2018-03-23T17:54:24.462Z,29.30
2018-03-23T17:56:50.844Z,25.07
2018-03-23T17:59:17.811Z,25.20
2018-03-23T18:01:44.300Z,23.43
2018-03-23T18:04:10.910Z,25.03
2018-03-23T18:06:37.207Z,23.43
2018-03-23T18:09:03.479Z,25.87
2018-03-23T18:11:29.712Z,26.07
2018-03-23T18:13:55.957Z,24.30
2018-03-23T18:16:22.190Z,25.50
2018-03-23T18:18:48.411Z,27.70
2018-03-23T18:21:14.722Z,27.40
2018-03-23T18:23:40.965Z,29.50
2018-03-23T18:26:07.204Z,28.67
2018-03-23T18:28:33.413Z,28.33
2018-03-23T18:30:59.670Z,25.67
2018-03-23T18:33:26.784Z,27.40
2018-03-23T18:35:53.041Z,26.77
2018-03-23T18:38:19.735Z,24.07
2018-03-23T18:40:45.997Z,26.00
2018-03-23T18:43:12.278Z,26.80
2018-03-23T18:45:38.628Z,27.67
2018-03-23T18:48:04.849Z,25.30
2018-03-23T18:50:32.423Z,26.73
2018-03-23T18:52:59.214Z,24.77
2018-03-23T18:55:25.413Z,26.33
2018-03-23T18:57:51.632Z,26.30
2018-03-23T19:00:17.871Z,26.70
2018-03-23T19:02:44.132Z,26.70
2018-03-23T19:05:10.710Z,27.90
2018-03-23T19:07:36.931Z,29.13
2018-03-23T19:10:03.187Z,29.27
2018-03-23T19:12:30.152Z,29.30
2018-03-23T19:14:56.455Z,27.83
2018-03-23T19:17:22.787Z,26.83
2018-03-23T19:19:49.021Z,25.17
2018-03-23T19:22:15.351Z,27.23
2018-03-23T19:24:41.559Z,27.87
2018-03-23T19:27:08.021Z,28.10
2018-03-23T19:29:34.238Z,28.60
2018-03-23T19:32:00.587Z,27.10
2018-03-23T19:34:26.825Z,30.40
2018-03-23T19:36:53.849Z,27.20
2018-03-23T19:39:20.124Z,28.70
2018-03-23T19:41:46.864Z,27.57
2018-03-23T19:44:13.182Z,29.17
2018-03-23T19:46:39.421Z,28.00
2018-03-23T19:49:06.534Z,27.70
2018-03-23T19:51:32.825Z,29.20
2018-03-23T19:53:59.778Z,31.30
2018-03-23T19:56:26.014Z,29.00
2018-03-23T19:58:52.242Z,28.97
2018-03-23T20:01:18.681Z,29.10
2018-03-23T20:03:44.918Z,26.50
2018-03-23T20:06:11.151Z,34.20
2018-03-23T20:08:37.375Z,35.30
2018-03-23T20:11:03.594Z,30.80
2018-03-23T20:13:29.850Z,30.00
2018-03-23T20:15:56.102Z,32.93
2018-03-23T20:18:22.345Z,34.53
2018-03-23T20:20:54.570Z,34.60
2018-03-23T20:23:20.922Z,31.77
2018-03-23T20:25:47.147Z,33.17
2018-03-23T20:28:19.442Z,32.57
2018-03-23T20:30:45.990Z,31.70
2018-03-23T20:33:12.941Z,30.77
2018-03-23T20:35:39.992Z,34.60
2018-03-23T20:38:07.331Z,32.97
2018-03-23T20:40:33.547Z,34.13
2018-03-23T20:42:59.980Z,34.27
2018-03-23T20:45:26.218Z,32.30
2018-03-23T20:47:52.520Z,35.20
2018-03-23T20:50:18.770Z,35.23
2018-03-23T20:52:45.046Z,34.77
2018-03-23T20:55:11.413Z,31.83
2018-03-23T20:57:37.710Z,35.10
2018-03-23T21:00:03.999Z,34.43
2018-03-23T21:02:30.238Z,31.20
2018-03-23T21:04:56.456Z,30.57
2018-03-23T21:07:22.699Z,33.33
2018-03-23T21:09:48.902Z,33.90
2018-03-23T21:12:15.130Z,32.27
2018-03-23T21:14:41.382Z,32.97
2018-03-23T21:17:07.601Z,33.83
2018-03-23T21:19:33.856Z,34.50
2018-03-23T21:22:00.827Z,33.90
2018-03-23T21:24:27.047Z,34.80
2018-03-23T21:26:53.251Z,37.53
2018-03-23T21:29:20.239Z,30.57
2018-03-23T21:31:46.562Z,33.60
2018-03-23T21:34:12.883Z,37.07
2018-03-23T21:36:39.109Z,34.50
2018-03-23T21:39:05.399Z,35.80
2018-03-23T21:41:31.694Z,34.70
2018-03-23T21:43:57.948Z,35.83
2018-03-23T21:46:24.919Z,31.47
2018-03-23T21:48:51.241Z,32.80
2018-03-23T21:51:17.461Z,32.07
2018-03-23T21:53:44.115Z,35.10
2018-03-23T21:56:10.712Z,32.33
2018-03-23T21:58:36.922Z,36.43
2018-03-23T22:01:03.302Z,32.40
2018-03-23T22:03:29.560Z,33.87
2018-03-23T22:05:56.702Z,32.17
2018-03-23T22:08:23.717Z,35.10
2018-03-23T22:10:49.933Z,36.00
2018-03-23T22:13:16.223Z,33.07
2018-03-23T22:15:42.446Z,34.87
2018-03-23T22:18:09.461Z,36.70
2018-03-23T22:20:35.720Z,34.53
2018-03-23T22:23:02.693Z,36.87
2018-03-23T22:25:28.934Z,37.13
2018-03-23T22:27:55.140Z,35.03
2018-03-23T22:30:21.418Z,36.63
2018-03-23T22:32:47.748Z,32.80
2018-03-23T22:35:13.952Z,37.10
2018-03-23T22:37:40.226Z,37.47
2018-03-23T22:40:06.862Z,34.83
2018-03-23T22:42:33.143Z,36.60
2018-03-23T22:44:59.382Z,35.60
2018-03-23T22:47:25.602Z,34.67
2018-03-23T22:49:51.815Z,32.17
2018-03-23T22:52:18.089Z,39.80
2018-03-23T22:54:44.299Z,35.30
2018-03-23T22:57:10.769Z,36.50
2018-03-23T22:59:37.007Z,38.37
2018-03-23T23:02:03.251Z,39.03
2018-03-23T23:04:30.300Z,37.47
2018-03-23T23:06:57.283Z,39.93
2018-03-23T23:09:23.530Z,37.83
2018-03-23T23:11:49.750Z,37.57
2018-03-23T23:14:15.966Z,37.53
2018-03-23T23:16:42.195Z,37.60
2018-03-23T23:19:08.439Z,36.83
2018-03-23T23:21:34.686Z,41.10
2018-03-23T23:24:00.938Z,36.60
2018-03-23T23:26:28.006Z,35.43
2018-03-23T23:28:54.281Z,37.13
2018-03-23T23:31:20.501Z,36.27
2018-03-23T23:33:46.710Z,37.00
2018-03-23T23:36:13.044Z,37.40
2018-03-23T23:38:39.297Z,38.90
2018-03-23T23:41:05.590Z,34.20
2018-03-23T23:43:31.801Z,33.33
2018-03-23T23:45:58.046Z,34.23
2018-03-23T23:48:24.262Z,30.73
2018-03-23T23:50:51.313Z,37.67
2018-03-23T23:53:18.362Z,39.47
2018-03-23T23:55:45.305Z,36.40
2018-03-23T23:58:12.251Z,34.43
